sensor_id;sensor_type;location;lat;lon;timestamp;pressure;altitude;pressure_sealevel;temperature;humidity
61324;BME280;47203;48.428;11.974;2023-05-08T00:00:20;97044.94;;;20.91;41.89
61324;BME280;47203;48.428;11.974;2023-05-08T00:02:27;97040.25;;;20.88;41.95
61324;BME280;47203;48.428;11.974;2023-05-08T00:04:32;97048.59;;;20.87;41.71
61324;BME280;47203;48.428;11.974;2023-05-08T00:06:37;97048.13;;;20.85;41.98
61324;BME280;47203;48.428;11.974;2023-05-08T00:08:42;97045.75;;;20.83;41.90
61324;BME280;47203;48.428;11.974;2023-05-08T00:10:47;97052.25;;;20.82;41.97
61324;BME280;47203;48.428;11.974;2023-05-08T00:12:52;97049.09;;;20.80;42.31
61324;BME280;47203;48.428;11.974;2023-05-08T00:14:57;97044.84;;;20.79;41.98
61324;BME280;47203;48.428;11.974;2023-05-08T00:17:02;97053.19;;;20.78;42.33
61324;BME280;47203;48.428;11.974;2023-05-08T00:19:10;97051.63;;;20.77;42.22
61324;BME280;47203;48.428;11.974;2023-05-08T00:21:14;97054.31;;;20.77;42.34
61324;BME280;47203;48.428;11.974;2023-05-08T00:23:19;97054.31;;;20.77;41.90
61324;BME280;47203;48.428;11.974;2023-05-08T00:25:25;97054.63;;;20.75;42.26
61324;BME280;47203;48.428;11.974;2023-05-08T00:27:32;97054.97;;;20.73;41.96
61324;BME280;47203;48.428;11.974;2023-05-08T00:29:37;97052.56;;;20.72;41.91
61324;BME280;47203;48.428;11.974;2023-05-08T00:31:42;97057.94;;;20.72;41.87
61324;BME280;47203;48.428;11.974;2023-05-08T00:33:47;97058.25;;;20.70;42.09
61324;BME280;47203;48.428;11.974;2023-05-08T00:36:00;97062.38;;;20.68;42.43
61324;BME280;47203;48.428;11.974;2023-05-08T00:38:04;97062.69;;;20.66;42.09
61324;BME280;47203;48.428;11.974;2023-05-08T00:40:10;97072.56;;;20.66;42.17
61324;BME280;47203;48.428;11.974;2023-05-08T00:42:16;97071.31;;;20.63;42.21
61324;BME280;47203;48.428;11.974;2023-05-08T00:44:21;97075.09;;;20.62;42.19
61324;BME280;47203;48.428;11.974;2023-05-08T00:46:25;97084.22;;;20.61;42.13
61324;BME280;47203;48.428;11.974;2023-05-08T00:48:33;97081.88;;;20.60;42.70
61324;BME280;47203;48.428;11.974;2023-05-08T00:50:38;97089.91;;;20.60;42.44
61324;BME280;47203;48.428;11.974;2023-05-08T00:52:46;97091.00;;;20.58;42.55
61324;BME280;47203;48.428;11.974;2023-05-08T00:54:51;97092.13;;;20.57;42.57
61324;BME280;47203;48.428;11.974;2023-05-08T00:56:55;97090.22;;;20.58;42.19
61324;BME280;47203;48.428;11.974;2023-05-08T00:59:02;97092.91;;;20.58;42.47
61324;BME280;47203;48.428;11.974;2023-05-08T01:01:07;97087.53;;;20.58;42.66
61324;BME280;47203;48.428;11.974;2023-05-08T01:03:12;97095.25;;;20.60;42.51
61324;BME280;47203;48.428;11.974;2023-05-08T01:05:18;97095.25;;;20.60;42.63
61324;BME280;47203;48.428;11.974;2023-05-08T01:07:23;97099.81;;;20.59;42.41
61324;BME280;47203;48.428;11.974;2023-05-08T01:09:31;97101.22;;;20.56;42.38
61324;BME280;47203;48.428;11.974;2023-05-08T01:11:41;97096.66;;;20.57;42.38
61324;BME280;47203;48.428;11.974;2023-05-08T01:13:51;97106.59;;;20.56;42.41
61324;BME280;47203;48.428;11.974;2023-05-08T01:16:05;97106.59;;;20.56;42.36
61324;BME280;47203;48.428;11.974;2023-05-08T01:18:14;97099.34;;;20.57;42.61
61324;BME280;47203;48.428;11.974;2023-05-08T01:20:31;97099.34;;;20.57;42.26
61324;BME280;47203;48.428;11.974;2023-05-08T01:22:52;97101.56;;;20.55;42.50
61324;BME280;47203;48.428;11.974;2023-05-08T01:25:32;97102.19;;;20.52;42.42
61324;BME280;47203;48.428;11.974;2023-05-08T01:28:02;97100.16;;;20.49;42.72
61324;BME280;47203;48.428;11.974;2023-05-08T01:30:23;97095.13;;;20.47;42.77
61324;BME280;47203;48.428;11.974;2023-05-08T01:32:37;97089.31;;;20.45;42.87
61324;BME280;47203;48.428;11.974;2023-05-08T01:34:50;97091.22;;;20.45;42.64
61324;BME280;47203;48.428;11.974;2023-05-08T01:37:00;97091.53;;;20.43;42.98
61324;BME280;47203;48.428;11.974;2023-05-08T01:39:18;97094.84;;;20.40;43.10
61324;BME280;47203;48.428;11.974;2023-05-08T01:41:26;97089.81;;;20.38;42.77
61324;BME280;47203;48.428;11.974;2023-05-08T01:43:49;97097.34;;;20.36;42.67
61324;BME280;47203;48.428;11.974;2023-05-08T01:45:57;97096.09;;;20.34;42.49
61324;BME280;47203;48.428;11.974;2023-05-08T01:48:09;97102.56;;;20.33;42.61
61324;BME280;47203;48.428;11.974;2023-05-08T01:50:17;97100.69;;;20.25;42.98
61324;BME280;47203;48.428;11.974;2023-05-08T01:52:28;97101.47;;;20.25;42.47
61324;BME280;47203;48.428;11.974;2023-05-08T01:54:40;97104.94;;;20.26;42.94
61324;BME280;47203;48.428;11.974;2023-05-08T01:56:47;97101.94;;;20.27;42.67
61324;BME280;47203;48.428;11.974;2023-05-08T01:58:53;97109.47;;;20.25;42.47
61324;BME280;47203;48.428;11.974;2023-05-08T02:01:00;97113.28;;;20.24;42.56
61324;BME280;47203;48.428;11.974;2023-05-08T02:03:10;97114.38;;;20.23;42.55
61324;BME280;47203;48.428;11.974;2023-05-08T02:05:18;97118.13;;;20.22;42.41
61324;BME280;47203;48.428;11.974;2023-05-08T02:07:25;97121.13;;;20.20;42.15
61324;BME280;47203;48.428;11.974;2023-05-08T02:09:30;97122.25;;;20.19;42.38
61324;BME280;47203;48.428;11.974;2023-05-08T02:11:37;97128.69;;;20.18;42.18
61324;BME280;47203;48.428;11.974;2023-05-08T02:13:43;97128.19;;;20.16;42.51
61324;BME280;47203;48.428;11.974;2023-05-08T02:15:52;97125.06;;;20.14;42.53
61324;BME280;47203;48.428;11.974;2023-05-08T02:17:58;97135.44;;;20.16;42.11
61324;BME280;47203;48.428;11.974;2023-05-08T02:20:08;97129.63;;;20.14;42.51
61324;BME280;47203;48.428;11.974;2023-05-08T02:22:17;97136.84;;;20.13;42.34
61324;BME280;47203;48.428;11.974;2023-05-08T02:24:23;97134.50;;;20.12;42.40
61324;BME280;47203;48.428;11.974;2023-05-08T02:26:30;97138.28;;;20.11;42.21
61324;BME280;47203;48.428;11.974;2023-05-08T02:28:37;97139.38;;;20.10;42.08
61324;BME280;47203;48.428;11.974;2023-05-08T02:30:43;97138.56;;;20.09;41.99
61324;BME280;47203;48.428;11.974;2023-05-08T02:32:49;97149.25;;;20.09;42.22
61324;BME280;47203;48.428;11.974;2023-05-08T02:35:00;97146.13;;;20.07;42.18
61324;BME280;47203;48.428;11.974;2023-05-08T02:37:10;97146.00;;;20.03;41.85
61324;BME280;47203;48.428;11.974;2023-05-08T02:39:17;97149.75;;;20.02;41.68
61324;BME280;47203;48.428;11.974;2023-05-08T02:41:26;97150.38;;;19.99;41.56
61324;BME280;47203;48.428;11.974;2023-05-08T02:43:32;97149.91;;;19.97;41.54
61324;BME280;47203;48.428;11.974;2023-05-08T02:45:42;97150.06;;;19.92;41.48
61324;BME280;47203;48.428;11.974;2023-05-08T02:47:54;97151.47;;;19.90;41.22
61324;BME280;47203;48.428;11.974;2023-05-08T02:50:08;97144.41;;;19.85;40.87
61324;BME280;47203;48.428;11.974;2023-05-08T02:52:27;97156.50;;;19.82;41.20
61324;BME280;47203;48.428;11.974;2023-05-08T02:54:36;97162.16;;;19.81;41.03
61324;BME280;47203;48.428;11.974;2023-05-08T02:56:52;97157.13;;;19.79;41.02
61324;BME280;47203;48.428;11.974;2023-05-08T02:59:05;97157.41;;;19.78;40.96
61324;BME280;47203;48.428;11.974;2023-05-08T03:01:19;97155.38;;;19.75;41.40
61324;BME280;47203;48.428;11.974;2023-05-08T03:03:32;97153.03;;;19.73;41.02
61324;BME280;47203;48.428;11.974;2023-05-08T03:05:43;97151.75;;;19.70;41.02
61324;BME280;47203;48.428;11.974;2023-05-08T03:07:55;97153.66;;;19.70;41.55
61324;BME280;47203;48.428;11.974;2023-05-08T03:10:06;97151.28;;;19.68;41.15
61324;BME280;47203;48.428;11.974;2023-05-08T03:12:17;97148.94;;;19.67;41.52
61324;BME280;47203;48.428;11.974;2023-05-08T03:14:27;97151.13;;;19.65;41.36
61324;BME280;47203;48.428;11.974;2023-05-08T03:16:35;97147.19;;;19.62;41.49
61324;BME280;47203;48.428;11.974;2023-05-08T03:18:48;97149.69;;;19.59;41.60
61324;BME280;47203;48.428;11.974;2023-05-08T03:20:57;97143.91;;;19.57;41.41
61324;BME280;47203;48.428;11.974;2023-05-08T03:23:07;97150.66;;;19.54;41.22
61324;BME280;47203;48.428;11.974;2023-05-08T03:25:15;97150.66;;;19.54;41.44
61324;BME280;47203;48.428;11.974;2023-05-08T03:27:21;97155.50;;;19.52;41.36
61324;BME280;47203;48.428;11.974;2023-05-08T03:29:27;97163.03;;;19.50;41.35
61324;BME280;47203;48.428;11.974;2023-05-08T03:31:33;97164.94;;;19.49;41.29
61324;BME280;47203;48.428;11.974;2023-05-08T03:33:42;97165.53;;;19.46;41.08
61324;BME280;47203;48.428;11.974;2023-05-08T03:35:48;97166.16;;;19.43;40.77
61324;BME280;47203;48.428;11.974;2023-05-08T03:37:54;97167.25;;;19.42;40.78
61324;BME280;47203;48.428;11.974;2023-05-08T03:40:02;97171.34;;;19.40;40.71
61324;BME280;47203;48.428;11.974;2023-05-08T03:42:08;97174.31;;;19.38;40.69
61324;BME280;47203;48.428;11.974;2023-05-08T03:44:22;97173.03;;;19.35;40.60
61324;BME280;47203;48.428;11.974;2023-05-08T03:46:30;97178.22;;;19.32;40.67
61324;BME280;47203;48.428;11.974;2023-05-08T03:48:35;97168.63;;;19.31;40.51
61324;BME280;47203;48.428;11.974;2023-05-08T03:50:42;97174.59;;;19.28;40.91
61324;BME280;47203;48.428;11.974;2023-05-08T03:52:48;97169.56;;;19.26;40.67
61324;BME280;47203;48.428;11.974;2023-05-08T03:54:53;97170.19;;;19.23;40.72
61324;BME280;47203;48.428;11.974;2023-05-08T03:57:01;97175.34;;;19.19;40.57
61324;BME280;47203;48.428;11.974;2023-05-08T03:59:12;97174.06;;;19.17;40.84
61324;BME280;47203;48.428;11.974;2023-05-08T04:01:22;97175.97;;;19.16;40.63
61324;BME280;47203;48.428;11.974;2023-05-08T04:03:36;97178.16;;;19.14;40.53
61324;BME280;47203;48.428;11.974;2023-05-08T04:05:50;97177.69;;;19.12;40.60
61324;BME280;47203;48.428;11.974;2023-05-08T04:08:01;97176.09;;;19.11;41.05
61324;BME280;47203;48.428;11.974;2023-05-08T04:10:11;97175.16;;;19.07;40.62
61324;BME280;47203;48.428;11.974;2023-05-08T04:12:23;97172.50;;;19.07;40.72
61324;BME280;47203;48.428;11.974;2023-05-08T04:14:35;97174.66;;;19.05;40.89
61324;BME280;47203;48.428;11.974;2023-05-08T04:16:47;97178.13;;;19.06;40.58
61324;BME280;47203;48.428;11.974;2023-05-08T04:18:57;97177.34;;;19.05;41.08
61324;BME280;47203;48.428;11.974;2023-05-08T04:21:08;97177.34;;;19.05;40.99
61324;BME280;47203;48.428;11.974;2023-05-08T04:23:17;97187.69;;;19.07;40.93
61324;BME280;47203;48.428;11.974;2023-05-08T04:25:26;97185.53;;;19.09;41.00
61324;BME280;47203;48.428;11.974;2023-05-08T04:27:35;97194.31;;;19.09;41.14
61324;BME280;47203;48.428;11.974;2023-05-08T04:29:41;97202.31;;;19.09;41.16
61324;BME280;47203;48.428;11.974;2023-05-08T04:31:47;97198.06;;;19.08;41.19
61324;BME280;47203;48.428;11.974;2023-05-08T04:33:53;97196.97;;;19.09;41.39
61324;BME280;47203;48.428;11.974;2023-05-08T04:36:00;97198.88;;;19.09;41.24
61324;BME280;47203;48.428;11.974;2023-05-08T04:38:06;97200.72;;;19.08;41.08
61324;BME280;47203;48.428;11.974;2023-05-08T04:40:12;97203.69;;;19.07;41.07
61324;BME280;47203;48.428;11.974;2023-05-08T04:42:17;97200.56;;;19.05;40.95
61324;BME280;47203;48.428;11.974;2023-05-08T04:44:25;97209.66;;;19.04;41.10
61324;BME280;47203;48.428;11.974;2023-05-08T04:46:30;97213.13;;;19.04;41.06
61324;BME280;47203;48.428;11.974;2023-05-08T04:48:35;97213.72;;;19.01;40.95
61324;BME280;47203;48.428;11.974;2023-05-08T04:50:40;97214.34;;;18.98;41.31
61324;BME280;47203;48.428;11.974;2023-05-08T04:52:45;97209.59;;;18.95;41.06
61324;BME280;47203;48.428;11.974;2023-05-08T04:54:51;97212.59;;;18.93;40.82
61324;BME280;47203;48.428;11.974;2023-05-08T04:56:56;97218.22;;;18.92;41.15
61324;BME280;47203;48.428;11.974;2023-05-08T04:59:01;97217.75;;;18.90;40.94
61324;BME280;47203;48.428;11.974;2023-05-08T05:01:10;97226.06;;;18.88;41.15
61324;BME280;47203;48.428;11.974;2023-05-08T05:03:15;97229.03;;;18.87;40.92
61324;BME280;47203;48.428;11.974;2023-05-08T05:05:20;97231.72;;;18.87;41.29
61324;BME280;47203;48.428;11.974;2023-05-08T05:07:25;97228.22;;;18.86;40.90
61324;BME280;47203;48.428;11.974;2023-05-08T05:09:31;97231.97;;;18.85;40.87
61324;BME280;47203;48.428;11.974;2023-05-08T05:11:38;97231.78;;;18.81;40.94
61324;BME280;47203;48.428;11.974;2023-05-08T05:13:43;97233.69;;;18.81;40.85
61324;BME280;47203;48.428;11.974;2023-05-08T05:15:48;97238.50;;;18.79;40.85
61324;BME280;47203;48.428;11.974;2023-05-08T05:17:59;97244.47;;;18.76;40.99
61324;BME280;47203;48.428;11.974;2023-05-08T05:20:05;97241.63;;;18.72;40.64
61324;BME280;47203;48.428;11.974;2023-05-08T05:22:11;97245.22;;;18.67;40.54
61324;BME280;47203;48.428;11.974;2023-05-08T05:24:16;97245.00;;;18.64;40.76
61324;BME280;47203;48.428;11.974;2023-05-08T05:26:21;97255.50;;;18.60;40.59
61324;BME280;47203;48.428;11.974;2023-05-08T05:28:26;97245.94;;;18.59;40.61
61324;BME280;47203;48.428;11.974;2023-05-08T05:30:32;97253.94;;;18.59;40.61
61324;BME280;47203;48.428;11.974;2023-05-08T05:32:38;97253.41;;;18.57;40.60
61324;BME280;47203;48.428;11.974;2023-05-08T05:34:45;97251.38;;;18.54;40.67
61324;BME280;47203;48.428;11.974;2023-05-08T05:36:51;97252.16;;;18.55;40.46
61324;BME280;47203;48.428;11.974;2023-05-08T05:38:56;97257.50;;;18.55;40.34
61324;BME280;47203;48.428;11.974;2023-05-08T05:41:01;97258.59;;;18.54;40.73
61324;BME280;47203;48.428;11.974;2023-05-08T05:43:06;97263.13;;;18.53;40.75
61324;BME280;47203;48.428;11.974;2023-05-08T05:45:11;97257.81;;;18.53;40.64
61324;BME280;47203;48.428;11.974;2023-05-08T05:47:16;97262.34;;;18.53;40.85
61324;BME280;47203;48.428;11.974;2023-05-08T05:49:21;97262.84;;;18.55;41.09
61324;BME280;47203;48.428;11.974;2023-05-08T05:51:29;97265.50;;;18.55;40.81
61324;BME280;47203;48.428;11.974;2023-05-08T05:53:34;97261.72;;;18.56;40.65
61324;BME280;47203;48.428;11.974;2023-05-08T05:55:40;97270.84;;;18.55;41.19
61324;BME280;47203;48.428;11.974;2023-05-08T05:57:45;97268.94;;;18.55;40.82
61324;BME280;47203;48.428;11.974;2023-05-08T05:59:50;97264.22;;;18.52;41.23
61324;BME280;47203;48.428;11.974;2023-05-08T06:01:56;97275.66;;;18.53;40.65
61324;BME280;47203;48.428;11.974;2023-05-08T06:04:01;97282.09;;;18.52;41.09
61324;BME280;47203;48.428;11.974;2023-05-08T06:06:07;97277.06;;;18.50;40.60
61324;BME280;47203;48.428;11.974;2023-05-08T06:08:14;97279.22;;;18.48;40.83
61324;BME280;47203;48.428;11.974;2023-05-08T06:10:20;97284.25;;;18.49;41.16
61324;BME280;47203;48.428;11.974;2023-05-08T06:12:25;97289.59;;;18.49;40.99
61324;BME280;47203;48.428;11.974;2023-05-08T06:14:29;97289.91;;;18.48;40.60
61324;BME280;47203;48.428;11.974;2023-05-08T06:16:34;97289.13;;;18.47;40.96
61324;BME280;47203;48.428;11.974;2023-05-08T06:18:39;97293.47;;;18.43;40.54
61324;BME280;47203;48.428;11.974;2023-05-08T06:20:44;97292.19;;;18.41;40.95
61324;BME280;47203;48.428;11.974;2023-05-08T06:22:50;97290.13;;;18.38;40.76
61324;BME280;47203;48.428;11.974;2023-05-08T06:24:57;97292.63;;;18.34;40.68
61324;BME280;47203;48.428;11.974;2023-05-08T06:27:03;97291.03;;;18.33;40.49
61324;BME280;47203;48.428;11.974;2023-05-08T06:29:08;97289.75;;;18.30;40.65
61324;BME280;47203;48.428;11.974;2023-05-08T06:31:13;97286.59;;;18.28;40.89
61324;BME280;47203;48.428;11.974;2023-05-08T06:33:18;97284.84;;;18.24;40.76
61324;BME280;47203;48.428;11.974;2023-05-08T06:35:26;97301.91;;;18.23;40.89
61324;BME280;47203;48.428;11.974;2023-05-08T06:37:31;97299.56;;;18.21;40.83
61324;BME280;47203;48.428;11.974;2023-05-08T06:39:36;97300.31;;;18.22;40.83
61324;BME280;47203;48.428;11.974;2023-05-08T06:41:46;97293.72;;;18.19;41.08
61324;BME280;47203;48.428;11.974;2023-05-08T06:44:00;97300.94;;;18.19;40.76
61324;BME280;47203;48.428;11.974;2023-05-08T06:46:04;97295.91;;;18.17;40.72
61324;BME280;47203;48.428;11.974;2023-05-08T06:48:09;97307.34;;;18.18;41.02
61324;BME280;47203;48.428;11.974;2023-05-08T06:50:14;97300.94;;;18.19;40.85
61324;BME280;47203;48.428;11.974;2023-05-08T06:52:20;97300.63;;;18.20;40.99
61324;BME280;47203;48.428;11.974;2023-05-08T06:54:26;97287.31;;;18.20;41.34
61324;BME280;47203;48.428;11.974;2023-05-08T06:56:31;97300.63;;;18.20;41.39
61324;BME280;47203;48.428;11.974;2023-05-08T06:58:39;97302.50;;;18.20;41.17
61324;BME280;47203;48.428;11.974;2023-05-08T07:00:51;97300.63;;;18.20;41.18
61324;BME280;47203;48.428;11.974;2023-05-08T07:02:56;97297.19;;;18.20;41.25
61324;BME280;47203;48.428;11.974;2023-05-08T07:05:01;97300.63;;;18.20;41.08
61324;BME280;47203;48.428;11.974;2023-05-08T07:07:06;97301.91;;;18.23;41.06
61324;BME280;47203;48.428;11.974;2023-05-08T07:09:13;97306.63;;;18.26;41.07
61324;BME280;47203;48.428;11.974;2023-05-08T07:11:18;97309.00;;;18.27;41.61
61324;BME280;47203;48.428;11.974;2023-05-08T07:13:22;97308.41;;;18.30;41.51
61324;BME280;47203;48.428;11.974;2023-05-08T07:15:30;97308.59;;;18.34;41.60
61324;BME280;47203;48.428;11.974;2023-05-08T07:17:35;97305.34;;;18.37;41.92
61324;BME280;47203;48.428;11.974;2023-05-08T07:19:41;97308.97;;;18.41;41.78
61324;BME280;47203;48.428;11.974;2023-05-08T07:21:46;97301.78;;;18.42;41.80
61324;BME280;47203;48.428;11.974;2023-05-08T07:23:51;97311.03;;;18.44;41.81
61324;BME280;47203;48.428;11.974;2023-05-08T07:25:56;97313.09;;;18.47;41.83
61324;BME280;47203;48.428;11.974;2023-05-08T07:28:02;97314.09;;;18.52;42.15
61324;BME280;47203;48.428;11.974;2023-05-08T07:30:08;97312.88;;;18.58;41.90
61324;BME280;47203;48.428;11.974;2023-05-08T07:32:15;97314.16;;;18.60;42.04
61324;BME280;47203;48.428;11.974;2023-05-08T07:34:20;97308.69;;;18.65;41.62
61324;BME280;47203;48.428;11.974;2023-05-08T07:36:25;97309.97;;;18.68;41.67
61324;BME280;47203;48.428;11.974;2023-05-08T07:38:30;97315.78;;;18.70;41.73
61324;BME280;47203;48.428;11.974;2023-05-08T07:40:35;97305.63;;;18.72;41.89
61324;BME280;47203;48.428;11.974;2023-05-08T07:42:40;97299.97;;;18.74;41.82
61324;BME280;47203;48.428;11.974;2023-05-08T07:44:46;97307.06;;;18.78;41.81
61324;BME280;47203;48.428;11.974;2023-05-08T07:46:56;97308.34;;;18.81;41.78
61324;BME280;47203;48.428;11.974;2023-05-08T07:49:03;97310.59;;;18.88;42.03
61324;BME280;47203;48.428;11.974;2023-05-08T07:51:08;97316.59;;;18.93;41.71
61324;BME280;47203;48.428;11.974;2023-05-08T07:53:14;97314.31;;;19.00;42.08
61324;BME280;47203;48.428;11.974;2023-05-08T07:55:20;97317.34;;;19.08;42.25
61324;BME280;47203;48.428;11.974;2023-05-08T07:57:25;97320.34;;;19.15;42.06
61324;BME280;47203;48.428;11.974;2023-05-08T07:59:30;97322.88;;;19.20;41.98
61324;BME280;47203;48.428;11.974;2023-05-08T08:01:35;97311.00;;;19.26;41.73
61324;BME280;47203;48.428;11.974;2023-05-08T08:03:40;97307.09;;;19.32;42.04
61324;BME280;47203;48.428;11.974;2023-05-08T08:05:48;97305.88;;;19.39;42.04
61324;BME280;47203;48.428;11.974;2023-05-08T08:07:53;97300.41;;;19.44;42.24
61324;BME280;47203;48.428;11.974;2023-05-08T08:09:59;97299.97;;;19.50;41.84
61324;BME280;47203;48.428;11.974;2023-05-08T08:12:04;97299.53;;;19.57;42.31
61324;BME280;47203;48.428;11.974;2023-05-08T08:14:09;97300.66;;;19.65;41.96
61324;BME280;47203;48.428;11.974;2023-05-08T08:16:14;97312.13;;;19.74;42.13
61324;BME280;47203;48.428;11.974;2023-05-08T08:18:19;97299.66;;;19.83;42.09
61324;BME280;47203;48.428;11.974;2023-05-08T08:20:23;97312.88;;;19.97;42.09
61324;BME280;47203;48.428;11.974;2023-05-08T08:22:31;97302.53;;;20.13;41.96
61324;BME280;47203;48.428;11.974;2023-05-08T08:24:37;97307.13;;;20.30;41.78
61324;BME280;47203;48.428;11.974;2023-05-08T08:26:43;97305.88;;;20.45;41.73
61324;BME280;47203;48.428;11.974;2023-05-08T08:28:48;97299.75;;;20.62;41.81
61324;BME280;47203;48.428;11.974;2023-05-08T08:30:53;97303.53;;;20.79;42.18
61324;BME280;47203;48.428;11.974;2023-05-08T08:32:58;97299.25;;;20.95;42.10
61324;BME280;47203;48.428;11.974;2023-05-08T08:35:05;97308.53;;;21.06;41.56
61324;BME280;47203;48.428;11.974;2023-05-08T08:37:10;97298.13;;;21.14;41.79
61324;BME280;47203;48.428;11.974;2023-05-08T08:39:17;97299.69;;;21.23;41.52
61324;BME280;47203;48.428;11.974;2023-05-08T08:41:23;97305.78;;;21.33;41.21
61324;BME280;47203;48.428;11.974;2023-05-08T08:43:29;97303.41;;;21.40;41.26
61324;BME280;47203;48.428;11.974;2023-05-08T08:45:35;97318.19;;;21.46;40.96
61324;BME280;47203;48.428;11.974;2023-05-08T08:47:43;97303.84;;;21.51;40.52
61324;BME280;47203;48.428;11.974;2023-05-08T08:49:50;97305.28;;;21.57;40.48
61324;BME280;47203;48.428;11.974;2023-05-08T08:51:58;97309.34;;;21.63;40.67
61324;BME280;47203;48.428;11.974;2023-05-08T08:54:08;97316.09;;;21.69;40.47
61324;BME280;47203;48.428;11.974;2023-05-08T08:56:16;97301.38;;;21.75;39.81
61324;BME280;47203;48.428;11.974;2023-05-08T08:58:30;97300.44;;;21.80;40.21
61324;BME280;47203;48.428;11.974;2023-05-08T09:00:40;97299.78;;;21.83;39.95
61324;BME280;47203;48.428;11.974;2023-05-08T09:02:45;97303.38;;;21.87;39.89
61324;BME280;47203;48.428;11.974;2023-05-08T09:04:51;97304.63;;;21.90;40.07
61324;BME280;47203;48.428;11.974;2023-05-08T09:06:56;97304.47;;;21.95;39.70
61324;BME280;47203;48.428;11.974;2023-05-08T09:09:04;97299.69;;;22.01;39.65
61324;BME280;47203;48.428;11.974;2023-05-08T09:11:09;97297.59;;;22.06;39.69
61324;BME280;47203;48.428;11.974;2023-05-08T09:13:16;97289.03;;;22.13;39.70
61324;BME280;47203;48.428;11.974;2023-05-08T09:15:22;97301.63;;;22.21;39.75
61324;BME280;47203;48.428;11.974;2023-05-08T09:17:27;97302.53;;;22.25;39.63
61324;BME280;47203;48.428;11.974;2023-05-08T09:19:32;97295.88;;;22.31;39.75
61324;BME280;47203;48.428;11.974;2023-05-08T09:21:38;97293.34;;;22.35;39.42
61324;BME280;47203;48.428;11.974;2023-05-08T09:24:02;97299.63;;;22.39;38.75
61324;BME280;47203;48.428;11.974;2023-05-08T09:26:08;97297.72;;;22.40;38.99
61324;BME280;47203;48.428;11.974;2023-05-08T09:28:20;97292.03;;;22.41;38.77
61324;BME280;47203;48.428;11.974;2023-05-08T09:30:25;97300.22;;;22.45;39.19
61324;BME280;47203;48.428;11.974;2023-05-08T09:32:31;97297.31;;;22.50;38.92
61324;BME280;47203;48.428;11.974;2023-05-08T09:34:37;97298.72;;;22.56;38.98
61324;BME280;47203;48.428;11.974;2023-05-08T09:36:42;97302.28;;;22.60;38.72
61324;BME280;47203;48.428;11.974;2023-05-08T09:38:48;97295.97;;;22.65;38.71
61324;BME280;47203;48.428;11.974;2023-05-08T09:41:05;97292.28;;;22.70;38.09
61324;BME280;47203;48.428;11.974;2023-05-08T09:43:13;97298.09;;;22.72;38.63
61324;BME280;47203;48.428;11.974;2023-05-08T09:45:29;97294.63;;;22.71;38.61
61324;BME280;47203;48.428;11.974;2023-05-08T09:47:36;97296.84;;;22.69;38.59
61324;BME280;47203;48.428;11.974;2023-05-08T09:49:58;97295.97;;;22.65;37.61
61324;BME280;47203;48.428;11.974;2023-05-08T09:52:04;97295.69;;;22.58;38.16
61324;BME280;47203;48.428;11.974;2023-05-08T09:54:16;97292.28;;;22.48;37.70
61324;BME280;47203;48.428;11.974;2023-05-08T09:56:37;97298.63;;;22.44;37.71
61324;BME280;47203;48.428;11.974;2023-05-08T09:58:43;97296.94;;;22.39;38.12
61324;BME280;47203;48.428;11.974;2023-05-08T10:00:51;97297.16;;;22.34;37.87
61324;BME280;47203;48.428;11.974;2023-05-08T10:02:57;97299.19;;;22.28;37.96
61324;BME280;47203;48.428;11.974;2023-05-08T10:05:03;97295.13;;;22.22;38.05
61324;BME280;47203;48.428;11.974;2023-05-08T10:07:09;97298.13;;;22.21;38.25
61324;BME280;47203;48.428;11.974;2023-05-08T10:09:14;97302.72;;;22.20;38.17
61324;BME280;47203;48.428;11.974;2023-05-08T10:11:19;97296.91;;;22.18;38.17
61324;BME280;47203;48.428;11.974;2023-05-08T10:13:24;97304.94;;;22.18;38.84
61324;BME280;47203;48.428;11.974;2023-05-08T10:15:29;97297.69;;;22.19;38.51
61324;BME280;47203;48.428;11.974;2023-05-08T10:17:43;97296.59;;;22.20;38.36
61324;BME280;47203;48.428;11.974;2023-05-08T10:19:58;97300.38;;;22.19;38.24
61324;BME280;47203;48.428;11.974;2023-05-08T10:22:05;97292.00;;;22.20;38.64
61324;BME280;47203;48.428;11.974;2023-05-08T10:24:16;97292.91;;;22.24;38.71
61324;BME280;47203;48.428;11.974;2023-05-08T10:26:24;97290.34;;;22.28;38.80
61324;BME280;47203;48.428;11.974;2023-05-08T10:28:35;97281.66;;;22.31;38.85
61324;BME280;47203;48.428;11.974;2023-05-08T10:30:42;97290.66;;;22.35;38.91
61324;BME280;47203;48.428;11.974;2023-05-08T10:32:55;97286.97;;;22.40;39.41
61324;BME280;47203;48.428;11.974;2023-05-08T10:35:02;97289.16;;;22.46;38.90
61324;BME280;47203;48.428;11.974;2023-05-08T10:37:09;97286.59;;;22.50;38.94
61324;BME280;47203;48.428;11.974;2023-05-08T10:39:14;97290.84;;;22.51;39.17
61324;BME280;47203;48.428;11.974;2023-05-08T10:41:20;97282.81;;;22.51;38.96
61324;BME280;47203;48.428;11.974;2023-05-08T10:43:28;97280.13;;;22.51;38.71
61324;BME280;47203;48.428;11.974;2023-05-08T10:45:34;97280.44;;;22.49;38.65
61324;BME280;47203;48.428;11.974;2023-05-08T10:47:47;97279.69;;;22.49;38.71
61324;BME280;47203;48.428;11.974;2023-05-08T10:50:02;97275.09;;;22.49;38.35
61324;BME280;47203;48.428;11.974;2023-05-08T10:52:15;97265.13;;;22.50;38.72
61324;BME280;47203;48.428;11.974;2023-05-08T10:54:28;97271.28;;;22.51;38.73
61324;BME280;47203;48.428;11.974;2023-05-08T10:56:36;97267.63;;;22.55;38.99
61324;BME280;47203;48.428;11.974;2023-05-08T10:58:41;97266.63;;;22.60;39.16
61324;BME280;47203;48.428;11.974;2023-05-08T11:01:14;97258.72;;;22.63;38.97
61324;BME280;47203;48.428;11.974;2023-05-08T11:03:22;97259.16;;;22.65;38.84
61324;BME280;47203;48.428;11.974;2023-05-08T11:05:47;97260.09;;;22.70;38.62
61324;BME280;47203;48.428;11.974;2023-05-08T11:07:53;97261.44;;;22.76;38.84